Time;durP1;ratioP1;P1;durP2;ratioP2;P2;SDS_P1;SDS_P2;PMS_P1;PMS_P2;Temp;Humidity;BMP_temperature;BMP_pressure;BME280_temperature;BME280_humidity;BME280_pressure;Samples;Min_cycle;Max_cycle;Signal;HPM_P1;HPM_P2
2022/01/25 00:08:39;;;;;;;43.27;19.03;;;;;;;2.86;100.00;102512.00;4801999;29;20291;-80
2022/01/25 00:27:35;;;;;;;40.60;17.63;;;;;;;2.80;100.00;102524.00;4803083;29;20043;-80
2022/01/25 00:30:21;;;;;;;37.87;16.30;;;;;;;2.76;100.00;102529.00;4819677;29;20050;-80
2022/01/25 00:32:46;;;;;;;43.33;18.37;;;;;;;2.78;100.00;102529.97;4803773;29;20038;-79
2022/01/25 00:35:13;;;;;;;42.20;19.37;;;;;;;2.85;100.00;102513.72;4816945;29;20055;-79
2022/01/25 00:37:39;;;;;;;42.97;18.63;;;;;;;2.76;100.00;102509.00;4800947;29;20527;-80
2022/01/25 00:40:06;;;;;;;43.07;19.70;;;;;;;2.81;100.00;102510.09;4785362;30;20108;-79
2022/01/25 00:42:34;;;;;;;42.27;17.00;;;;;;;2.76;100.00;102522.06;4814686;29;20046;-80
2022/01/25 00:45:04;;;;;;;37.73;16.73;;;;;;;2.71;100.00;102507.94;4802134;29;20173;-80
2022/01/25 00:47:32;;;;;;;34.80;16.60;;;;;;;2.72;100.00;102512.34;4786291;29;20505;-80
2022/01/25 00:49:59;;;;;;;44.77;19.47;;;;;;;2.71;100.00;102504.47;4788411;29;20054;-79
2022/01/25 00:55:15;;;;;;;45.07;19.23;;;;;;;2.73;100.00;102490.63;4801907;29;20482;-79
2022/01/25 00:57:43;;;;;;;38.50;18.57;;;;;;;2.70;100.00;102493.13;4786449;29;20070;-79
2022/01/25 01:00:11;;;;;;;44.80;18.63;;;;;;;2.71;100.00;102489.69;4802753;29;20047;-79
2022/01/25 01:02:38;;;;;;;39.63;16.30;;;;;;;2.68;100.00;102483.44;4772854;29;20077;-79
2022/01/25 01:05:06;;;;;;;37.17;17.50;;;;;;;2.70;100.00;102490.53;4768604;29;20043;-79
2022/01/25 01:07:36;;;;;;;39.50;18.37;;;;;;;2.68;100.00;102483.44;4789674;29;20053;-79
2022/01/25 01:10:04;;;;;;;38.47;17.70;;;;;;;2.64;100.00;102487.66;4806713;29;20073;-79
2022/01/25 01:15:51;;;;;;;42.87;19.23;;;;;;;2.67;100.00;102479.94;4793653;29;20043;-79
2022/01/25 01:29:32;;;;;;;36.47;17.13;;;;;;;2.64;100.00;102487.66;4792461;29;20098;-79
2022/01/25 01:32:10;;;;;;;42.13;17.63;;;;;;;2.71;100.00;102486.19;4779197;30;20419;-80
2022/01/25 01:37:59;;;;;;;40.80;16.03;;;;;;;2.65;100.00;102478.97;4785224;29;20058;-79
2022/01/25 01:43:32;;;;;;;40.97;17.63;;;;;;;2.72;100.00;102460.16;4798847;29;20050;-80
2022/01/25 01:46:22;;;;;;;40.57;18.80;;;;;;;2.63;100.00;102470.22;4868099;23;20483;-83
2022/01/25 01:48:53;;;;;;;43.53;18.13;;;;;;;2.63;100.00;102471.94;4834797;29;20049;-83
2022/01/25 01:51:35;;;;;;;37.47;18.03;;;;;;;2.62;100.00;102464.94;4829186;29;20719;-82
2022/01/25 01:54:05;;;;;;;37.13;17.40;;;;;;;2.62;100.00;102464.94;4826346;29;20045;-83
2022/01/25 01:56:33;;;;;;;46.07;17.90;;;;;;;2.61;100.00;102463.16;4809892;29;20049;-82
2022/01/25 01:59:01;;;;;;;40.07;18.30;;;;;;;2.70;100.00;102464.41;4817800;29;20041;-82
2022/01/25 02:01:29;;;;;;;38.97;18.03;;;;;;;2.67;100.00;102458.16;4805477;29;20680;-83
2022/01/25 02:03:57;;;;;;;33.73;16.77;;;;;;;2.63;100.00;102457.16;4825062;29;20045;-83
2022/01/25 02:06:24;;;;;;;38.00;17.70;;;;;;;2.62;100.00;102454.50;4811691;29;20309;-83
2022/01/25 02:08:51;;;;;;;39.83;16.73;;;;;;;2.60;100.00;102450.91;4828366;29;20046;-83
2022/01/25 02:11:18;;;;;;;40.30;16.33;;;;;;;2.62;100.00;102459.72;4808343;29;20050;-83
2022/01/25 02:13:46;;;;;;;38.93;16.23;;;;;;;2.59;100.00;102450.03;4797727;29;20053;-81
2022/01/25 02:24:32;;;;;;;38.90;16.70;;;;;;;2.65;100.00;102454.63;4829337;29;20060;-83
2022/01/25 02:26:59;;;;;;;35.53;16.93;;;;;;;2.67;100.00;102452.94;4814388;29;20495;-83
2022/01/25 02:29:26;;;;;;;34.77;15.87;;;;;;;2.63;100.00;102448.44;4809481;29;20045;-82
2022/01/25 02:31:53;;;;;;;35.20;17.20;;;;;;;2.60;100.00;102446.59;4812997;29;20053;-84
2022/01/25 02:34:21;;;;;;;37.77;16.30;;;;;;;2.62;100.00;102431.91;4814234;29;20053;-84
2022/01/25 02:36:59;;;;;;;43.40;16.87;;;;;;;2.61;100.00;102444.91;4827639;29;20052;-83
2022/01/25 02:39:26;;;;;;;37.90;17.10;;;;;;;2.60;100.00;102440.47;4828809;29;20092;-83
2022/01/25 02:41:53;;;;;;;35.77;16.60;;;;;;;2.57;100.00;102442.97;4811774;29;20064;-83
2022/01/25 02:44:25;;;;;;;36.50;16.87;;;;;;;2.55;100.00;102440.31;4813390;29;20507;-83
2022/01/25 02:49:31;;;;;;;37.03;17.63;;;;;;;2.57;100.00;102435.16;4814451;29;20113;-83
2022/01/25 02:52:00;;;;;;;36.20;17.17;;;;;;;2.61;100.00;102435.34;4811446;29;20112;-83
2022/01/25 02:54:28;;;;;;;40.90;16.20;;;;;;;2.65;100.00;102438.97;4814272;29;20665;-83
2022/01/25 02:56:56;;;;;;;34.63;15.93;;;;;;;2.61;100.00;102427.53;4811998;29;20049;-82
2022/01/25 02:59:23;;;;;;;36.67;16.57;;;;;;;2.59;100.00;102426.53;4828615;29;20401;-82
2022/01/25 03:01:49;;;;;;;32.37;15.30;;;;;;;2.58;100.00;102429.09;4823589;29;20050;-82
2022/01/25 03:04:18;;;;;;;30.07;14.70;;;;;;;2.62;100.00;102425.78;4816596;29;20121;-83
2022/01/25 03:06:45;;;;;;;30.60;13.97;;;;;;;2.55;100.00;102406.38;4841434;29;20057;-82
2022/01/25 03:09:13;;;;;;;29.87;14.97;;;;;;;2.53;100.00;102416.78;4812689;29;20423;-83
2022/01/25 03:11:39;;;;;;;32.90;15.87;;;;;;;2.56;100.00;102417.72;4808135;29;20083;-82
2022/01/25 03:14:10;;;;;;;33.10;16.23;;;;;;;2.65;100.00;102416.34;4814247;29;20041;-83
2022/01/25 03:17:24;;;;;;;30.23;14.50;;;;;;;2.58;100.00;102410.84;4808669;29;20481;-83
2022/01/25 03:22:14;;;;;;;30.20;14.93;;;;;;;2.57;100.00;102411.66;4815350;29;20276;-83
2022/01/25 03:24:41;;;;;;;36.07;14.80;;;;;;;2.47;100.00;102407.81;4813095;29;20198;-83
2022/01/25 03:27:08;;;;;;;33.70;16.73;;;;;;;2.51;100.00;102409.69;4807939;29;20128;-82
2022/01/25 03:29:35;;;;;;;32.10;14.17;;;;;;;2.76;100.00;102415.06;4827490;29;20088;-83
2022/01/25 03:32:02;;;;;;;28.50;14.37;;;;;;;2.58;100.00;102409.13;4809136;29;20061;-82
2022/01/25 03:34:29;;;;;;;28.37;14.20;;;;;;;2.49;100.00;102407.03;4813101;29;20419;-82
2022/01/25 03:36:56;;;;;;;29.90;13.40;;;;;;;2.52;100.00;102398.41;4810338;29;20396;-82
2022/01/25 03:39:23;;;;;;;31.00;14.83;;;;;;;2.55;100.00;102395.94;4812943;29;20416;-83
2022/01/25 03:41:49;;;;;;;30.40;12.93;;;;;;;2.48;100.00;102393.94;4811623;29;20042;-82
2022/01/25 03:44:17;;;;;;;25.30;12.27;;;;;;;2.44;100.00;102390.31;4814307;29;20105;-83
2022/01/25 03:52:12;;;;;;;27.53;14.00;;;;;;;2.49;100.00;102380.94;4828578;29;20042;-84
2022/01/25 03:54:38;;;;;;;27.03;11.90;;;;;;;2.56;100.00;102384.69;4813725;29;20057;-84
2022/01/25 03:57:05;;;;;;;28.70;13.20;;;;;;;2.61;100.00;102383.16;4811770;29;20136;-83
2022/01/25 03:59:32;;;;;;;28.13;13.90;;;;;;;2.64;100.00;102393.72;4813262;29;20526;-82
2022/01/25 04:01:58;;;;;;;26.03;12.00;;;;;;;2.68;100.00;102384.25;4813106;29;20053;-84
2022/01/25 04:04:26;;;;;;;27.43;12.93;;;;;;;2.64;100.00;102390.22;4812845;29;20046;-84
2022/01/25 04:06:54;;;;;;;23.20;10.80;;;;;;;2.55;100.00;102393.34;4827012;29;20050;-84
2022/01/25 04:09:21;;;;;;;30.60;14.50;;;;;;;2.63;100.00;102394.53;4817988;29;20597;-85
2022/01/25 04:11:48;;;;;;;26.57;13.43;;;;;;;2.65;100.00;102394.59;4813915;29;20041;-82
2022/01/25 04:14:15;;;;;;;24.37;11.77;;;;;;;2.69;100.00;102386.97;4830220;29;20041;-85
2022/01/25 04:19:24;;;;;;;25.20;12.50;;;;;;;2.57;100.00;102383.84;4815342;29;20054;-83
2022/01/25 04:27:26;;;;;;;31.13;13.07;;;;;;;2.56;100.00;102376.84;4790585;29;20051;-83
2022/01/25 04:29:53;;;;;;;26.57;13.13;;;;;;;2.54;100.00;102381.13;4832780;29;20060;-83
2022/01/25 04:32:20;;;;;;;28.00;13.23;;;;;;;2.62;100.00;102384.94;4814843;29;20484;-83
2022/01/25 04:35:09;;;;;;;26.87;12.17;;;;;;;2.64;100.00;102385.00;4810317;29;20046;-84
2022/01/25 04:54:17;;;;;;;24.40;12.80;;;;;;;2.58;100.00;102387.34;4831837;29;20046;-82
2022/01/25 05:02:06;;;;;;;25.57;12.80;;;;;;;2.64;100.00;102391.09;4830664;29;20062;-85
2022/01/25 05:04:39;;;;;;;30.25;12.77;;;;;;;2.58;100.00;102388.25;4832025;29;20567;-84
2022/01/25 05:10:01;;;;;;;28.47;12.67;;;;;;;2.54;100.00;102389.84;4811375;29;20050;-84
2022/01/25 05:12:43;;;;;;;26.37;12.10;;;;;;;2.45;100.00;102396.41;4824666;29;20049;-83
2022/01/25 05:18:15;;;;;;;27.47;13.23;;;;;;;2.62;100.00;102402.31;4816370;29;20066;-83
2022/01/25 05:23:28;;;;;;;27.83;12.80;;;;;;;2.54;100.00;102400.28;4829373;29;20045;-80
2022/01/25 05:25:55;;;;;;;28.33;12.40;;;;;;;2.49;100.00;102395.69;4826318;29;20101;-83
2022/01/25 05:28:21;;;;;;;25.60;12.10;;;;;;;2.48;100.00;102388.72;4811208;29;20042;-84
2022/01/25 05:30:48;;;;;;;26.87;12.17;;;;;;;2.59;100.00;102381.28;4804002;29;20472;-81
2022/01/25 05:33:15;;;;;;;27.50;12.37;;;;;;;2.51;100.00;102375.78;4820793;29;20045;-84
2022/01/25 05:35:41;;;;;;;24.07;13.77;;;;;;;2.50;100.00;102374.00;4810143;29;20137;-84
2022/01/25 05:38:08;;;;;;;30.73;13.93;;;;;;;2.52;100.00;102362.81;4812136;29;20113;-85
2022/01/25 05:40:43;;;;;;;27.93;13.23;;;;;;;2.49;100.00;102372.22;4829795;29;20059;-81
2022/01/25 05:45:59;;;;;;;28.47;13.73;;;;;;;2.50;100.00;102364.44;4828581;29;20046;-85
2022/01/25 05:48:27;;;;;;;33.17;14.77;;;;;;;2.56;100.00;102366.41;4822603;29;20565;-84
2022/01/25 05:50:54;;;;;;;37.10;17.27;;;;;;;2.51;100.00;102365.34;4828421;29;20109;-82
2022/01/25 05:53:21;;;;;;;34.67;15.43;;;;;;;2.56;100.00;102360.31;4816173;29;20448;-82
2022/01/25 05:55:49;;;;;;;35.90;16.07;;;;;;;2.47;100.00;102355.63;4816513;29;20049;-85
2022/01/25 05:58:19;;;;;;;34.93;16.60;;;;;;;2.51;100.00;102353.19;4814827;29;20827;-84
2022/01/25 06:00:46;;;;;;;28.57;13.33;;;;;;;2.47;100.00;102358.22;4810425;29;20407;-83
2022/01/25 06:03:12;;;;;;;25.43;13.23;;;;;;;2.53;100.00;102361.09;4816869;29;20050;-85
2022/01/25 06:05:39;;;;;;;34.77;14.23;;;;;;;2.47;100.00;102371.28;4823229;29;20464;-81
2022/01/25 06:08:06;;;;;;;30.43;14.77;;;;;;;2.52;100.00;102369.72;4813486;29;20053;-86
2022/01/25 06:10:33;;;;;;;29.87;14.27;;;;;;;2.44;100.00;102368.56;4814261;29;20049;-85
2022/01/25 06:13:00;;;;;;;31.80;14.80;;;;;;;2.57;100.00;102367.31;4829029;29;20064;-81
2022/01/25 06:15:27;;;;;;;30.37;14.80;;;;;;;2.47;100.00;102369.56;4813466;29;20064;-85
2022/01/25 06:17:53;;;;;;;33.30;14.93;;;;;;;2.49;100.00;102367.88;4804374;29;20054;-82
2022/01/25 06:20:20;;;;;;;34.93;15.73;;;;;;;2.46;100.00;102359.97;4830616;29;20050;-81
2022/01/25 06:22:47;;;;;;;29.00;13.70;;;;;;;2.50;100.00;102358.34;4814809;29;20057;-85
2022/01/25 06:25:15;;;;;;;27.93;13.80;;;;;;;2.44;100.00;102365.94;4815547;29;20113;-81
2022/01/25 06:27:42;;;;;;;30.57;14.53;;;;;;;2.45;100.00;102373.84;4813336;29;20149;-85
2022/01/25 06:30:14;;;;;;;28.83;13.03;;;;;;;2.42;100.00;102368.47;4814304;29;20102;-85
2022/01/25 06:32:41;;;;;;;29.87;14.57;;;;;;;2.41;100.00;102376.25;4813047;29;20053;-84
2022/01/25 06:35:08;;;;;;;29.67;13.20;;;;;;;2.38;100.00;102371.81;4813568;29;20049;-83
2022/01/25 06:37:35;;;;;;;33.63;14.70;;;;;;;2.43;100.00;102369.34;4813480;29;20455;-84
2022/01/25 06:40:07;;;;;;;35.80;16.17;;;;;;;2.50;100.00;102371.38;4812840;29;20049;-84
2022/01/25 06:42:35;;;;;;;29.73;14.40;;;;;;;2.42;100.00;102381.50;4840361;29;20062;-85
2022/01/25 06:45:09;;;;;;;32.43;13.63;;;;;;;2.40;100.00;102377.97;4818634;29;20572;-81
2022/01/25 06:47:35;;;;;;;31.10;13.57;;;;;;;2.45;100.00;102379.06;4813659;29;20054;-83
2022/01/25 06:50:03;;;;;;;31.67;14.73;;;;;;;2.46;100.00;102375.59;4815033;29;20298;-84
2022/01/25 06:52:30;;;;;;;33.77;15.33;;;;;;;2.45;100.00;102378.16;4826610;29;20049;-84
2022/01/25 06:54:56;;;;;;;30.33;16.07;;;;;;;2.45;100.00;102368.63;4810036;29;20134;-84
2022/01/25 06:57:23;;;;;;;33.30;14.00;;;;;;;2.53;100.00;102372.41;4824770;29;20385;-82
2022/01/25 06:59:49;;;;;;;31.70;14.97;;;;;;;2.48;100.00;102370.44;4810029;29;20046;-84
2022/01/25 07:02:16;;;;;;;34.63;14.87;;;;;;;2.48;100.00;102373.06;4827707;29;20074;-83
2022/01/25 07:04:43;;;;;;;29.57;14.03;;;;;;;2.43;100.00;102385.00;4829565;29;20072;-80
2022/01/25 07:07:09;;;;;;;34.60;14.70;;;;;;;2.44;100.00;102384.22;4812638;29;20587;-84
2022/01/25 07:09:36;;;;;;;30.87;16.67;;;;;;;2.50;100.00;102384.44;4842748;29;20621;-84
2022/01/25 07:12:04;;;;;;;36.87;16.60;;;;;;;2.44;100.00;102381.59;4811211;29;20053;-83
2022/01/25 07:14:31;;;;;;;31.53;16.10;;;;;;;2.42;100.00;102383.22;4813954;29;20053;-84
2022/01/25 07:16:59;;;;;;;34.07;16.70;;;;;;;2.48;100.00;102370.44;4808783;29;20061;-83
2022/01/25 07:19:26;;;;;;;36.17;16.10;;;;;;;2.48;100.00;102384.38;4799623;29;20045;-84
2022/01/25 07:21:54;;;;;;;30.20;16.27;;;;;;;2.49;100.00;102383.53;4807715;29;20054;-84
2022/01/25 07:24:21;;;;;;;33.10;15.23;;;;;;;2.55;100.00;102390.72;4795480;29;20054;-85
2022/01/25 07:26:48;;;;;;;34.80;16.77;;;;;;;2.53;100.00;102389.78;4804586;29;20098;-83
2022/01/25 07:29:15;;;;;;;31.97;15.93;;;;;;;2.48;100.00;102387.00;4809171;29;20077;-85
2022/01/25 07:31:42;;;;;;;35.07;16.73;;;;;;;2.49;100.00;102377.44;4808201;29;20045;-83
2022/01/25 07:34:09;;;;;;;39.57;16.13;;;;;;;2.49;100.00;102382.66;4813276;29;20053;-85
2022/01/25 07:36:57;;;;;;;33.80;15.17;;;;;;;2.53;100.00;102392.41;4825116;29;20057;-84
2022/01/25 07:39:30;;;;;;;33.17;16.30;;;;;;;2.48;100.00;102388.72;4813879;29;20117;-82
2022/01/25 07:41:57;;;;;;;32.87;15.93;;;;;;;2.53;100.00;102387.19;4824589;29;20415;-84
2022/01/25 07:44:36;;;;;;;33.83;15.53;;;;;;;2.57;100.00;102393.41;4807046;29;20057;-80
2022/01/25 07:47:06;;;;;;;37.87;17.57;;;;;;;2.51;100.00;102399.25;4816906;29;20105;-83
2022/01/25 07:49:35;;;;;;;39.40;18.03;;;;;;;2.50;100.00;102397.47;4811333;29;20049;-84
2022/01/25 07:52:02;;;;;;;36.63;17.90;;;;;;;2.64;100.00;102395.44;4811006;29;20086;-83
2022/01/25 07:54:30;;;;;;;35.53;16.33;;;;;;;2.62;100.00;102395.38;4811157;29;20041;-85
2022/01/25 07:56:56;;;;;;;36.23;16.37;;;;;;;2.55;100.00;102393.34;4810886;29;20121;-84
2022/01/25 07:59:23;;;;;;;33.93;16.20;;;;;;;2.63;100.00;102397.16;4826851;29;20052;-84
2022/01/25 08:01:51;;;;;;;37.17;18.20;;;;;;;2.57;100.00;102390.78;4808939;29;20053;-85
2022/01/25 08:04:22;;;;;;;35.20;17.03;;;;;;;2.58;100.00;102387.34;4813243;29;20067;-86
2022/01/25 08:06:59;;;;;;;33.70;15.17;;;;;;;2.62;100.00;102391.88;4810971;29;20515;-84
2022/01/25 08:09:39;;;;;;;35.20;17.10;;;;;;;2.68;100.00;102386.88;4830665;29;20038;-85
2022/01/25 08:12:13;;;;;;;42.67;17.92;;;;;;;2.72;100.00;102387.06;4812551;29;20045;-82
2022/01/25 08:15:03;;;;;;;35.17;16.67;;;;;;;2.73;100.00;102388.84;4800615;29;20061;-82
2022/01/25 08:17:38;;;;;;;35.57;17.80;;;;;;;2.69;100.00;102388.66;4811545;29;20061;-83
2022/01/25 08:20:15;;;;;;;36.03;16.10;;;;;;;2.63;100.00;102391.03;4823081;29;20077;-85
2022/01/25 08:23:12;;;;;;;35.77;15.47;;;;;;;2.58;100.00;102388.25;4830763;29;20052;-84
2022/01/25 08:25:53;;;;;;;32.10;15.87;;;;;;;2.60;100.00;102396.13;4910144;23;20053;-83
2022/01/25 08:28:25;;;;;;;39.57;18.10;;;;;;;2.62;100.00;102405.81;4840222;29;20049;-82
2022/01/25 08:31:04;;;;;;;35.67;16.73;;;;;;;2.58;100.00;102400.41;4846464;29;20447;-84
2022/01/25 08:33:45;;;;;;;31.67;15.37;;;;;;;2.74;100.00;102397.56;4860301;29;20081;-84
2022/01/25 08:36:28;;;;;;;32.60;15.90;;;;;;;2.69;100.00;102402.63;4836168;29;20069;-84
2022/01/25 08:39:09;;;;;;;41.80;15.47;;;;;;;2.74;100.00;102402.78;4843171;29;20045;-84
2022/01/25 08:41:49;;;;;;;36.97;16.53;;;;;;;2.80;100.00;102413.47;4847091;29;20061;-83
2022/01/25 08:44:33;;;;;;;36.97;15.90;;;;;;;2.77;100.00;102401.16;4839044;29;20095;-82
2022/01/25 08:47:04;;;;;;;31.60;15.43;;;;;;;2.77;100.00;102401.16;4839780;29;20058;-83
2022/01/25 08:49:48;;;;;;;37.80;15.95;;;;;;;2.81;100.00;102397.88;4825155;29;20061;-82
2022/01/25 08:52:28;;;;;;;38.90;18.37;;;;;;;2.88;100.00;102395.50;4848464;29;20505;-83
2022/01/25 08:55:09;;;;;;;35.43;15.00;;;;;;;2.83;100.00;102397.91;4853439;29;20081;-82
2022/01/25 08:57:42;;;;;;;34.67;17.57;;;;;;;2.90;100.00;102406.88;4854428;29;20058;-83
2022/01/25 09:00:23;;;;;;;38.07;16.67;;;;;;;2.98;100.00;102401.13;4838969;29;20083;-83
2022/01/25 09:02:49;;;;;;;38.93;17.87;;;;;;;2.96;100.00;102404.53;4816683;29;20130;-83
2022/01/25 09:05:16;;;;;;;32.57;15.83;;;;;;;3.01;100.00;102400.34;4846248;29;20071;-83
2022/01/25 09:07:44;;;;;;;36.63;18.83;;;;;;;2.95;100.00;102390.56;4843409;29;20053;-81
2022/01/25 09:10:11;;;;;;;38.67;17.07;;;;;;;3.03;100.00;102390.88;4835606;29;20411;-84
2022/01/25 09:12:37;;;;;;;33.90;16.83;;;;;;;2.96;100.00;102399.31;4847220;29;20055;-82
2022/01/25 09:15:05;;;;;;;32.27;16.83;;;;;;;2.98;100.00;102382.84;4861363;29;20048;-81
2022/01/25 09:17:32;;;;;;;33.60;17.23;;;;;;;3.01;100.00;102382.06;4843823;29;20065;-82
2022/01/25 09:20:01;;;;;;;34.93;17.60;;;;;;;3.15;100.00;102382.59;4830482;29;20721;-82
2022/01/25 09:22:28;;;;;;;35.30;16.63;;;;;;;3.12;100.00;102380.78;4827757;29;20524;-83
2022/01/25 09:25:14;;;;;;;33.73;14.20;;;;;;;3.14;100.00;102373.88;4830455;29;20049;-81
2022/01/25 09:27:46;;;;;;;38.77;16.47;;;;;;;3.15;100.00;102375.66;4850879;29;20054;-82
2022/01/25 09:30:13;;;;;;;35.97;16.50;;;;;;;3.07;100.00;102374.47;4852104;29;20130;-82
2022/01/25 09:32:40;;;;;;;37.93;16.50;;;;;;;3.08;100.00;102377.13;4831207;29;20499;-84
2022/01/25 09:35:07;;;;;;;42.20;16.93;;;;;;;3.17;100.00;102381.81;4846722;29;20050;-83
2022/01/25 09:37:34;;;;;;;34.83;15.83;;;;;;;3.17;100.00;102379.19;4848469;29;20053;-83
2022/01/25 09:40:01;;;;;;;33.40;16.77;;;;;;;3.18;100.00;102380.97;4850317;29;20101;-83
2022/01/25 09:42:29;;;;;;;41.13;19.13;;;;;;;3.18;100.00;102380.97;4844327;29;20068;-82
2022/01/25 09:44:57;;;;;;;40.23;18.07;;;;;;;3.16;100.00;102376.53;4845504;29;20057;-82
2022/01/25 09:47:25;;;;;;;35.67;16.77;;;;;;;3.23;100.00;102369.00;4824600;29;20055;-82
2022/01/25 09:49:52;;;;;;;35.40;17.63;;;;;;;3.23;100.00;102368.09;4861220;29;20041;-84
2022/01/25 09:52:19;;;;;;;40.77;18.53;;;;;;;3.23;100.00;102371.59;4813511;29;20050;-83
2022/01/25 09:55:00;;;;;;;42.60;17.10;;;;;;;3.26;100.00;102365.59;4819546;29;20045;-82
2022/01/25 09:57:27;;;;;;;39.93;17.73;;;;;;;3.34;100.00;102365.03;4848158;29;20106;-81
2022/01/25 09:59:56;;;;;;;35.73;16.27;;;;;;;3.30;100.00;102364.88;4834608;29;20076;-83
2022/01/25 10:02:48;;;;;;;35.17;15.83;;;;;;;3.30;100.00;102362.28;4861118;29;20042;-81
2022/01/25 10:05:28;;;;;;;34.30;15.87;;;;;;;3.43;100.00;102363.59;4864677;29;20589;-81
2022/01/25 10:08:06;;;;;;;38.17;17.00;;;;;;;3.43;100.00;102350.53;4848450;29;20054;-82
2022/01/25 10:10:36;;;;;;;35.27;15.87;;;;;;;3.45;100.00;102356.69;4862019;29;20053;-82
2022/01/25 10:13:08;;;;;;;37.77;17.73;;;;;;;3.45;100.00;102349.78;4845613;29;20058;-83
2022/01/25 10:15:37;;;;;;;38.90;17.45;;;;;;;3.46;100.00;102348.03;4844157;29;20137;-82
2022/01/25 10:18:19;;;;;;;36.63;16.23;;;;;;;3.45;100.00;102354.06;4830262;29;20415;-82
2022/01/25 10:20:48;;;;;;;37.53;15.20;;;;;;;3.41;100.00;102357.44;4841568;29;20180;-82
2022/01/25 10:23:30;;;;;;;37.10;15.70;;;;;;;3.41;100.00;102358.31;4831059;29;20049;-82
2022/01/25 10:26:01;;;;;;;34.27;16.10;;;;;;;3.43;100.00;102355.75;4831485;29;20109;-81
2022/01/25 10:28:29;;;;;;;32.23;15.73;;;;;;;3.46;100.00;102362.00;4844443;29;20049;-82
2022/01/25 10:30:58;;;;;;;34.23;15.97;;;;;;;3.52;100.00;102353.47;4845519;29;20049;-83
2022/01/25 10:33:31;;;;;;;38.93;15.60;;;;;;;3.56;100.00;102357.97;4827466;29;20114;-81
2022/01/25 10:36:01;;;;;;;36.40;15.50;;;;;;;3.51;100.00;102357.81;4827559;29;20140;-82
2022/01/25 10:38:32;;;;;;;39.97;16.40;;;;;;;3.42;100.00;102362.69;4827843;29;20060;-82
2022/01/25 10:41:06;;;;;;;41.93;16.37;;;;;;;3.38;100.00;102363.44;4842098;29;20044;-83
2022/01/25 10:43:34;;;;;;;38.15;17.27;;;;;;;3.46;100.00;102355.88;4828037;29;20057;-81
2022/01/25 10:46:04;;;;;;;33.17;15.43;;;;;;;3.55;100.00;102357.09;4857806;29;20419;-82
2022/01/25 10:48:32;;;;;;;35.93;14.60;;;;;;;3.50;100.00;102358.63;4861325;29;20110;-82
2022/01/25 10:51:03;;;;;;;34.97;16.03;;;;;;;3.65;100.00;102351.34;4860446;29;20417;-82
2022/01/25 10:53:30;;;;;;;35.40;17.67;;;;;;;3.56;100.00;102353.63;4861346;29;20044;-82
2022/01/25 10:55:58;;;;;;;33.57;15.57;;;;;;;3.50;100.00;102355.13;4845388;29;20046;-82
2022/01/25 10:58:25;;;;;;;38.10;15.93;;;;;;;3.55;100.00;102348.38;4845718;29;20052;-82
2022/01/25 11:00:52;;;;;;;37.83;15.97;;;;;;;3.51;100.00;102352.56;4830578;29;20053;-83
2022/01/25 11:03:29;;;;;;;34.50;14.70;;;;;;;3.50;100.00;102352.53;4821617;29;20046;-83
2022/01/25 11:05:57;;;;;;;35.83;16.27;;;;;;;3.66;100.00;102337.44;4842074;29;20468;-82
2022/01/25 11:08:25;;;;;;;38.87;16.10;;;;;;;3.67;100.00;102338.31;4827222;29;20057;-82
2022/01/25 11:10:56;;;;;;;36.73;19.30;;;;;;;3.64;100.00;102340.84;4837166;29;20062;-82
2022/01/25 11:15:57;;;;;;;34.70;16.80;;;;;;;3.66;100.00;102344.38;4846403;29;20053;-84
2022/01/25 11:18:25;;;;;;;34.93;15.00;;;;;;;3.70;100.00;102338.44;4833720;29;20474;-83
2022/01/25 11:20:53;;;;;;;35.73;17.83;;;;;;;3.83;100.00;102339.75;4842386;29;20046;-82
2022/01/25 11:23:20;;;;;;;29.73;14.20;;;;;;;3.72;100.00;102334.16;4838982;29;20046;-84
2022/01/25 11:25:50;;;;;;;37.00;15.57;;;;;;;3.74;100.00;102332.47;4821032;29;20060;-85
2022/01/25 11:28:17;;;;;;;36.00;16.20;;;;;;;3.85;100.00;102338.06;4826967;29;20050;-83
2022/01/25 11:30:44;;;;;;;33.90;15.03;;;;;;;3.74;100.00;102328.97;4827148;29;20053;-85
2022/01/25 11:33:11;;;;;;;38.57;17.37;;;;;;;3.83;100.00;102335.41;4853868;29;20041;-85
2022/01/25 11:35:39;;;;;;;36.33;15.93;;;;;;;3.82;100.00;102336.25;4828320;29;20062;-85
2022/01/25 11:38:06;;;;;;;34.10;14.67;;;;;;;3.89;100.00;102332.13;4827182;29;20050;-85
2022/01/25 11:40:39;;;;;;;35.60;13.77;;;;;;;3.85;100.00;102331.09;4827870;29;20139;-85
2022/01/25 11:43:14;;;;;;;36.70;15.77;;;;;;;3.91;100.00;102322.59;4823414;29;20053;-85
2022/01/25 11:45:44;;;;;;;44.90;20.43;;;;;;;3.95;100.00;102325.38;4839221;29;20073;-84
2022/01/25 11:48:11;;;;;;;41.17;22.60;;;;;;;3.89;100.00;102333.00;4823253;29;20053;-85
2022/01/25 11:50:41;;;;;;;39.03;15.93;;;;;;;3.87;100.00;102320.72;4824597;29;20249;-84
2022/01/25 11:53:12;;;;;;;37.07;17.07;;;;;;;3.92;100.00;102322.63;4840563;29;20430;-84
2022/01/25 11:55:47;;;;;;;35.07;16.37;;;;;;;3.92;100.00;102317.41;4837513;29;20057;-84
2022/01/25 11:58:26;;;;;;;49.93;25.43;;;;;;;4.06;100.00;102315.25;4827460;29;20063;-84
2022/01/25 12:00:55;;;;;;;32.43;15.60;;;;;;;4.01;100.00;102311.59;4857042;29;20110;-85
2022/01/25 12:03:24;;;;;;;35.63;17.83;;;;;;;4.03;100.00;102312.50;4826818;29;20437;-84
2022/01/25 12:06:12;;;;;;;36.70;19.40;;;;;;;4.04;100.00;102316.06;4857890;29;20488;-85
2022/01/25 12:08:53;;;;;;;44.73;29.17;;;;;;;4.11;100.00;102307.53;4828188;29;20050;-84
2022/01/25 12:11:46;;;;;;;36.27;16.03;;;;;;;4.01;100.00;102315.94;4838818;29;20049;-86
2022/01/25 12:14:37;;;;;;;34.07;15.47;;;;;;;4.03;100.00;102316.84;4824677;29;20054;-85
2022/01/25 12:17:04;;;;;;;41.10;17.63;;;;;;;4.13;100.00;102317.22;4823337;29;20133;-83
2022/01/25 12:19:58;;;;;;;39.80;19.67;;;;;;;4.15;100.00;102317.28;4838455;29;20097;-85
2022/01/25 12:22:39;;;;;;;35.67;17.47;;;;;;;4.10;100.00;102324.06;4856554;29;20467;-84
2022/01/25 12:25:34;;;;;;;36.67;17.60;;;;;;;4.15;100.00;102317.28;4842504;29;20313;-86
2022/01/25 12:28:10;;;;;;;41.23;18.43;;;;;;;4.12;100.00;102309.31;4841350;29;20136;-85
2022/01/25 12:30:44;;;;;;;35.13;17.20;;;;;;;4.18;100.00;102305.16;4842720;29;20077;-85
2022/01/25 12:33:19;;;;;;;;;;;;;;;4.18;100.00;102296.44;4827198;29;20110;-84
2022/01/25 12:35:50;;;;;;;36.80;17.43;;;;;;;4.31;100.00;102300.34;4845870;29;19924;-83
2022/01/25 12:38:26;;;;;;;41.87;18.33;;;;;;;4.28;100.00;102305.44;4844162;29;20056;-82
2022/01/25 12:41:00;;;;;;;35.07;17.90;;;;;;;4.30;100.00;102307.31;4828846;29;20065;-82
2022/01/25 12:43:28;;;;;;;;;;;;;;;4.41;100.00;102303.28;4844161;29;20056;-84
2022/01/25 12:46:09;;;;;;;37.13;17.67;;;;;;;4.35;100.00;102310.94;4843976;29;20026;-83
2022/01/25 12:48:40;;;;;;;40.87;18.27;;;;;;;4.38;100.00;102297.09;4859965;29;20080;-82
2022/01/25 12:51:10;;;;;;;40.80;17.83;;;;;;;4.31;100.00;102293.38;4842889;29;20591;-83
2022/01/25 12:53:41;;;;;;;40.40;19.73;;;;;;;4.40;100.00;102295.38;4859030;29;20053;-82
2022/01/25 12:56:16;;;;;;;40.50;16.43;;;;;;;4.31;100.00;102279.41;4857189;29;20058;-82
2022/01/25 12:58:45;;;;;;;35.47;16.53;;;;;;;4.23;100.00;102285.28;4848555;29;20140;-82
2022/01/25 13:01:16;;;;;;;38.17;18.43;;;;;;;4.34;100.00;102285.63;4861388;29;20049;-83
2022/01/25 13:03:44;;;;;;;39.37;17.13;;;;;;;4.33;100.00;102285.56;4844549;29;20045;-84
2022/01/25 13:06:14;;;;;;;38.97;19.53;;;;;;;4.33;100.00;102277.72;4858410;29;20583;-82
2022/01/25 13:08:54;;;;;;;42.73;19.17;;;;;;;4.34;100.00;102274.25;4830115;29;20107;-83
2022/01/25 13:11:27;;;;;;;35.90;17.73;;;;;;;4.30;100.00;102267.19;4846854;29;20053;-82
2022/01/25 13:16:52;;;;;;;34.13;15.73;;;;;;;4.33;100.00;102267.25;4858347;29;20500;-83
2022/01/25 13:19:22;;;;;;;38.93;20.13;;;;;;;4.27;100.00;102267.94;4833033;29;20436;-82